Time;durP1;ratioP1;P1;durP2;ratioP2;P2;SDS_P1;SDS_P2;PMS_P1;PMS_P2;Temp;Humidity;BMP_temperature;BMP_pressure;BME280_temperature;BME280_humidity;BME280_pressure;Samples;Min_cycle;Max_cycle;Signal;HPM_P1;HPM_P2
2024/01/06 00:00:34;;;;;;;3.43;2.07;;;;;;;5.42;100.00;152753.69;5010127;28;20468;-78
2024/01/06 00:03:01;;;;;;;2.83;2.00;;;;;;;5.42;100.00;152753.69;5000676;28;20522;-78
2024/01/06 00:05:28;;;;;;;6.00;2.10;;;;;;;5.37;100.00;152742.09;5008449;28;20879;-78
2024/01/06 00:07:54;;;;;;;4.87;2.10;;;;;;;5.39;100.00;152745.94;4988857;28;20476;-78
2024/01/06 00:10:21;;;;;;;4.53;1.87;;;;;;;5.35;100.00;152736.91;4974834;28;20499;-78
2024/01/06 00:12:49;;;;;;;4.63;2.03;;;;;;;5.34;100.00;152733.06;5007330;28;20880;-78
2024/01/06 00:15:17;;;;;;;2.40;1.70;;;;;;;5.32;100.00;152727.91;4990316;28;20811;-78
2024/01/06 00:17:43;;;;;;;4.33;1.53;;;;;;;5.30;100.00;152724.03;5008286;28;20459;-77
2024/01/06 00:20:11;;;;;;;3.57;1.90;;;;;;;5.33;100.00;152730.47;5009646;28;20444;-78
2024/01/06 00:22:37;;;;;;;2.73;1.80;;;;;;;5.32;100.00;152727.91;4986003;28;21009;-77
2024/01/06 00:25:05;;;;;;;2.00;1.60;;;;;;;5.33;100.00;152730.47;5003916;28;20464;-78
2024/01/06 00:27:31;;;;;;;2.40;1.60;;;;;;;5.35;100.00;152735.63;5008954;28;20457;-78
2024/01/06 00:29:58;;;;;;;2.53;1.60;;;;;;;5.31;100.00;152725.31;4991489;28;20437;-78
2024/01/06 00:32:25;;;;;;;5.30;1.77;;;;;;;5.30;100.00;152722.72;4989729;28;20960;-78
2024/01/06 00:34:52;;;;;;;3.03;1.90;;;;;;;5.29;100.00;152721.47;5005510;28;20464;-78
2024/01/06 00:37:19;;;;;;;1.90;1.60;;;;;;;5.27;100.00;152715.03;4991650;28;20473;-78
2024/01/06 00:39:45;;;;;;;2.40;1.57;;;;;;;5.26;100.00;152712.44;5006611;28;20453;-78
2024/01/06 00:42:12;;;;;;;2.70;2.00;;;;;;;5.24;100.00;152707.28;4990620;28;20976;-78
2024/01/06 00:44:38;;;;;;;2.23;1.40;;;;;;;5.22;100.00;152702.09;4979401;28;20948;-76
2024/01/06 00:47:05;;;;;;;2.30;1.53;;;;;;;5.20;100.00;152696.94;4987816;28;20453;-77
2024/01/06 00:49:33;;;;;;;2.47;1.13;;;;;;;5.14;100.00;152682.78;5004728;28;20916;-77
2024/01/06 00:51:59;;;;;;;2.20;1.70;;;;;;;5.13;100.00;152680.22;4971484;28;20930;-76
2024/01/06 00:54:26;;;;;;;2.20;1.43;;;;;;;5.13;100.00;152678.94;4964869;28;20994;-76
2024/01/06 00:56:52;;;;;;;4.00;1.57;;;;;;;5.12;100.00;152676.31;5003128;28;20471;-77
2024/01/06 00:59:19;;;;;;;1.70;1.33;;;;;;;5.10;100.00;152671.19;5020885;28;20459;-77
2024/01/06 01:01:45;;;;;;;2.30;1.73;;;;;;;5.09;100.00;152669.88;4986420;28;20507;-77
2024/01/06 01:04:12;;;;;;;2.07;1.20;;;;;;;5.09;100.00;152668.59;4982756;28;20801;-76
2024/01/06 01:06:42;;;;;;;3.03;1.37;;;;;;;5.09;100.00;152668.59;4997578;28;21029;-76
2024/01/06 01:09:10;;;;;;;2.77;1.70;;;;;;;5.08;100.00;152666.03;5007680;28;20441;-76
2024/01/06 01:11:36;;;;;;;2.83;1.70;;;;;;;5.06;100.00;152660.84;5001290;28;20489;-76
2024/01/06 01:14:03;;;;;;;3.97;1.43;;;;;;;5.04;100.00;152655.69;4983339;28;20464;-79
2024/01/06 01:16:29;;;;;;;3.20;1.43;;;;;;;5.03;100.00;152653.16;4992170;28;20690;-76
2024/01/06 01:18:56;;;;;;;1.97;1.20;;;;;;;5.00;100.00;152645.41;4969083;28;20800;-78
2024/01/06 01:21:22;;;;;;;2.40;1.50;;;;;;;4.99;100.00;152642.81;4993344;28;20532;-77
2024/01/06 01:23:52;;;;;;;3.17;1.50;;;;;;;4.97;100.00;152637.69;4990898;28;20461;-78
2024/01/06 01:26:19;;;;;;;3.53;1.50;;;;;;;4.98;100.00;152640.28;4991507;28;20452;-76
2024/01/06 01:28:45;;;;;;;2.60;1.40;;;;;;;4.97;100.00;152637.69;5004902;28;20461;-78
2024/01/06 01:31:13;;;;;;;2.80;1.53;;;;;;;4.98;100.00;152640.28;4990535;28;20452;-78
2024/01/06 01:33:39;;;;;;;2.70;1.53;;;;;;;4.99;100.00;152642.81;5003159;28;20452;-78
2024/01/06 01:36:06;;;;;;;3.53;1.43;;;;;;;4.96;100.00;152636.38;5010516;28;20463;-78
2024/01/06 01:38:33;;;;;;;2.70;1.30;;;;;;;4.96;100.00;152635.06;4997399;28;20464;-78
2024/01/06 01:41:01;;;;;;;2.20;1.63;;;;;;;4.99;100.00;152644.13;5009992;28;20483;-78
2024/01/06 01:43:28;;;;;;;2.60;1.50;;;;;;;4.95;100.00;152632.53;5029956;28;20448;-78
2024/01/06 01:45:55;;;;;;;3.80;1.40;;;;;;;4.95;100.00;152632.53;4983019;28;20487;-78
2024/01/06 01:48:22;;;;;;;3.83;1.83;;;;;;;4.90;100.00;152622.19;5008683;28;20819;-78
2024/01/06 01:50:49;;;;;;;3.10;1.60;;;;;;;4.92;100.00;152626.09;4989712;28;20469;-78
2024/01/06 01:53:16;;;;;;;2.13;1.30;;;;;;;4.90;100.00;152622.19;4994809;28;20446;-78
2024/01/06 01:55:43;;;;;;;2.23;1.30;;;;;;;4.90;100.00;152622.19;4975362;28;20484;-78
2024/01/06 01:58:13;;;;;;;4.17;1.60;;;;;;;4.91;100.00;152624.78;5010791;28;20449;-78
2024/01/06 02:00:39;;;;;;;1.93;1.40;;;;;;;4.88;100.00;152617.06;5011474;28;20445;-78
2024/01/06 02:03:06;;;;;;;4.90;1.17;;;;;;;4.85;100.00;152608.03;5015172;28;20444;-78
2024/01/06 02:05:33;;;;;;;4.47;1.50;;;;;;;4.89;100.00;152619.66;5008682;28;20978;-78
2024/01/06 02:08:00;;;;;;;2.57;1.40;;;;;;;4.87;100.00;152614.47;4996008;28;20436;-78
2024/01/06 02:10:34;;;;;;;2.00;1.60;;;;;;;4.85;100.00;152608.03;5028887;28;20455;-78
2024/01/06 02:13:08;;;;;;;3.23;1.63;;;;;;;4.85;100.00;152609.31;4988149;28;20457;-78
2024/01/06 02:15:37;;;;;;;2.53;1.60;;;;;;;4.84;100.00;152605.47;5006795;28;20456;-78
2024/01/06 02:18:04;;;;;;;4.63;1.63;;;;;;;4.85;100.00;152609.31;4993885;28;20456;-78
2024/01/06 02:20:31;;;;;;;3.93;1.93;;;;;;;4.84;100.00;152605.47;5005705;28;20481;-78
2024/01/06 02:23:00;;;;;;;1.40;1.20;;;;;;;4.82;100.00;152600.28;4986329;28;20487;-77
2024/01/06 02:25:27;;;;;;;2.07;1.40;;;;;;;4.84;100.00;152605.47;5009754;28;20887;-78
2024/01/06 02:27:53;;;;;;;2.33;1.70;;;;;;;4.79;100.00;152593.84;5008663;28;20457;-78
2024/01/06 02:30:20;;;;;;;3.33;2.10;;;;;;;4.81;100.00;152597.72;5011035;28;20444;-78
2024/01/06 02:32:46;;;;;;;3.40;2.20;;;;;;;4.78;100.00;152591.28;5015715;28;20447;-78
2024/01/06 02:35:13;;;;;;;2.37;2.03;;;;;;;4.76;100.00;152584.84;5001063;28;20911;-78
2024/01/06 02:37:39;;;;;;;6.00;2.00;;;;;;;4.76;100.00;152584.84;4990516;28;20460;-78
2024/01/06 02:40:09;;;;;;;2.63;2.10;;;;;;;4.78;100.00;152591.28;5019913;28;20463;-78
2024/01/06 02:42:36;;;;;;;3.83;1.63;;;;;;;4.77;100.00;152588.69;5016275;28;20476;-78
2024/01/06 02:45:03;;;;;;;2.10;1.90;;;;;;;4.75;100.00;152583.56;5017984;28;20459;-78
2024/01/06 02:47:29;;;;;;;2.53;1.53;;;;;;;4.77;100.00;152587.41;4989940;28;21041;-78
2024/01/06 02:49:56;;;;;;;3.30;2.13;;;;;;;4.74;100.00;152580.97;5010676;28;20509;-78
2024/01/06 02:52:23;;;;;;;2.90;2.00;;;;;;;4.76;100.00;152584.84;5003971;28;20453;-78
2024/01/06 02:54:50;;;;;;;3.87;2.00;;;;;;;4.73;100.00;152578.41;4991968;28;20452;-78
2024/01/06 02:57:19;;;;;;;2.70;2.10;;;;;;;4.72;100.00;152574.50;5006200;28;20452;-78
2024/01/06 02:59:46;;;;;;;2.57;2.20;;;;;;;4.70;100.00;152569.38;4958639;28;20464;-78
2024/01/06 03:02:12;;;;;;;2.70;2.00;;;;;;;4.72;100.00;152575.81;5009511;28;20624;-78
2024/01/06 03:04:39;;;;;;;3.30;2.00;;;;;;;4.71;100.00;152573.22;4976661;28;20698;-77
2024/01/06 03:07:05;;;;;;;3.90;2.20;;;;;;;4.71;100.00;152571.97;4992626;28;21042;-77
2024/01/06 03:09:32;;;;;;;2.10;1.80;;;;;;;4.67;100.00;152561.63;4993137;28;20495;-78
2024/01/06 03:11:58;;;;;;;1.83;1.57;;;;;;;4.66;100.00;152560.34;5000445;28;20448;-77
2024/01/06 03:14:26;;;;;;;3.50;2.60;;;;;;;4.66;100.00;152560.34;4991739;28;20830;-78
2024/01/06 03:16:53;;;;;;;2.60;1.97;;;;;;;4.65;100.00;152556.50;5004173;28;20465;-78
2024/01/06 03:19:19;;;;;;;4.03;2.10;;;;;;;4.64;100.00;152553.91;4988640;28;20448;-78
2024/01/06 03:21:46;;;;;;;3.83;2.23;;;;;;;4.63;100.00;152552.59;4990804;28;20484;-78
2024/01/06 03:24:12;;;;;;;3.67;2.67;;;;;;;4.61;100.00;152546.16;5007258;28;20459;-78
2024/01/06 03:26:39;;;;;;;4.00;2.50;;;;;;;4.62;100.00;152550.06;4982220;28;20486;-78
2024/01/06 03:29:06;;;;;;;2.90;2.10;;;;;;;4.58;100.00;152539.72;5013933;28;20861;-78
2024/01/06 03:31:34;;;;;;;5.30;2.90;;;;;;;4.58;100.00;152539.72;4990414;28;20457;-78
2024/01/06 03:34:00;;;;;;;3.83;2.33;;;;;;;4.59;100.00;152541.03;4998277;28;20445;-78
2024/01/06 03:36:27;;;;;;;3.70;2.20;;;;;;;4.56;100.00;152533.28;5006321;28;20464;-78
2024/01/06 03:38:53;;;;;;;3.80;2.77;;;;;;;4.57;100.00;152537.19;5006339;28;20491;-78
2024/01/06 03:41:19;;;;;;;2.93;2.63;;;;;;;4.55;100.00;152532.03;4980815;28;20902;-78
2024/01/06 03:43:46;;;;;;;4.37;2.40;;;;;;;4.54;100.00;152528.13;5014910;28;20522;-78
2024/01/06 03:46:12;;;;;;;3.70;2.70;;;;;;;4.52;100.00;152524.28;4991195;28;20456;-78
2024/01/06 03:48:40;;;;;;;3.80;2.50;;;;;;;4.51;100.00;152521.69;4991707;28;20527;-78
2024/01/06 03:51:08;;;;;;;2.33;2.03;;;;;;;4.45;100.00;152506.22;5008450;28;20460;-78
2024/01/06 03:53:34;;;;;;;4.90;2.87;;;;;;;4.45;100.00;152504.97;4986123;28;20560;-78
2024/01/06 03:56:01;;;;;;;2.80;2.60;;;;;;;4.48;100.00;152512.66;4987091;28;20531;-78
2024/01/06 03:58:27;;;;;;;4.70;2.03;;;;;;;4.49;100.00;152516.56;4986991;28;20851;-78
2024/01/06 04:00:54;;;;;;;2.57;2.10;;;;;;;4.50;100.00;152519.09;4991985;28;20503;-78
2024/01/06 04:03:20;;;;;;;2.40;2.13;;;;;;;4.49;100.00;152516.56;5008682;28;20512;-78
2024/01/06 04:05:48;;;;;;;6.17;2.80;;;;;;;4.50;100.00;152519.09;5006723;28;20507;-78
2024/01/06 04:08:15;;;;;;;3.10;1.90;;;;;;;4.48;100.00;152513.97;4991699;28;20491;-77
2024/01/06 04:10:42;;;;;;;3.87;2.10;;;;;;;4.46;100.00;152507.53;5005300;28;20457;-78
2024/01/06 04:13:09;;;;;;;3.93;1.90;;;;;;;4.46;100.00;152508.81;4989135;28;20460;-78
2024/01/06 04:15:35;;;;;;;3.10;2.50;;;;;;;4.44;100.00;152503.69;5010042;28;20447;-78
2024/01/06 04:18:03;;;;;;;5.23;1.87;;;;;;;4.47;100.00;152511.41;5007391;28;20456;-78
2024/01/06 04:20:30;;;;;;;3.20;2.10;;;;;;;4.46;100.00;152507.53;4991901;28;20947;-78
2024/01/06 04:22:58;;;;;;;2.63;2.17;;;;;;;4.45;100.00;152506.22;5020908;28;20469;-78
2024/01/06 04:25:24;;;;;;;3.90;2.47;;;;;;;4.45;100.00;152506.22;4989641;28;20475;-78
2024/01/06 04:27:51;;;;;;;2.40;2.07;;;;;;;4.43;100.00;152501.09;4995136;28;20447;-78
2024/01/06 04:30:18;;;;;;;2.60;2.03;;;;;;;4.43;100.00;152501.09;5007557;28;20526;-78
2024/01/06 04:32:44;;;;;;;2.23;2.03;;;;;;;4.42;100.00;152498.50;5006556;28;20451;-78
2024/01/06 04:35:11;;;;;;;2.53;1.90;;;;;;;4.43;100.00;152499.78;4988695;28;20456;-78
2024/01/06 04:37:37;;;;;;;3.17;2.23;;;;;;;4.41;100.00;152495.94;4991671;28;20452;-78
2024/01/06 04:40:07;;;;;;;1.90;1.60;;;;;;;4.41;100.00;152494.66;4991595;28;20444;-78
2024/01/06 04:42:34;;;;;;;1.90;1.67;;;;;;;4.40;100.00;152493.34;5009044;28;20472;-78
2024/01/06 04:45:00;;;;;;;2.27;1.80;;;;;;;4.39;100.00;152490.81;5008081;28;20475;-78
2024/01/06 04:47:27;;;;;;;3.13;1.60;;;;;;;4.37;100.00;152485.63;4972987;28;20465;-78
2024/01/06 04:49:54;;;;;;;3.10;2.10;;;;;;;4.34;100.00;152477.94;4981369;28;20460;-78
2024/01/06 04:52:20;;;;;;;4.47;1.97;;;;;;;4.36;100.00;152481.78;4989859;28;20460;-78
2024/01/06 04:54:47;;;;;;;2.90;1.90;;;;;;;4.36;100.00;152483.06;5006742;28;20483;-78
2024/01/06 04:57:15;;;;;;;3.60;1.60;;;;;;;4.34;100.00;152477.94;5014567;28;20535;-78
2024/01/06 04:59:42;;;;;;;2.60;2.00;;;;;;;4.30;100.00;152468.91;5018889;28;20463;-78
2024/01/06 05:02:08;;;;;;;2.60;1.83;;;;;;;4.31;100.00;152471.44;5013651;28;20487;-78
2024/01/06 05:04:35;;;;;;;2.63;1.80;;;;;;;4.37;100.00;152485.63;5016569;28;20764;-78
2024/01/06 05:07:02;;;;;;;3.40;1.80;;;;;;;4.35;100.00;152479.19;4989306;28;20499;-78
2024/01/06 05:09:28;;;;;;;2.27;1.67;;;;;;;4.30;100.00;152468.91;4996755;28;20461;-78
2024/01/06 05:11:55;;;;;;;1.60;1.33;;;;;;;4.29;100.00;152465.00;4990529;28;20826;-78
2024/01/06 05:14:22;;;;;;;1.57;1.43;;;;;;;4.32;100.00;152472.75;4992449;28;20445;-78
2024/01/06 05:16:49;;;;;;;2.80;2.20;;;;;;;4.30;100.00;152468.91;5000221;28;20838;-78
2024/01/06 05:19:19;;;;;;;2.20;1.83;;;;;;;4.29;100.00;152465.00;5000461;28;20596;-78
2024/01/06 05:21:46;;;;;;;2.80;1.80;;;;;;;4.30;100.00;152467.59;4997543;28;20793;-78
2024/01/06 05:24:13;;;;;;;2.40;1.73;;;;;;;4.32;100.00;152472.75;4993201;28;20449;-78
2024/01/06 05:26:39;;;;;;;2.20;1.90;;;;;;;4.31;100.00;152470.19;4993588;28;20448;-78
2024/01/06 05:29:06;;;;;;;2.97;1.83;;;;;;;4.29;100.00;152465.00;5009663;28;20464;-78
2024/01/06 05:31:34;;;;;;;2.60;1.93;;;;;;;4.27;100.00;152459.88;5011367;28;20843;-78
2024/01/06 05:34:00;;;;;;;2.90;1.53;;;;;;;4.31;100.00;152471.44;5012495;28;20437;-78
2024/01/06 05:36:27;;;;;;;1.73;1.60;;;;;;;4.31;100.00;152470.19;5008270;28;20480;-78
2024/01/06 05:38:54;;;;;;;3.60;1.90;;;;;;;4.32;100.00;152474.03;5004758;28;20804;-78
2024/01/06 05:41:20;;;;;;;4.87;1.87;;;;;;;4.31;100.00;152471.44;5006807;28;20499;-78
2024/01/06 05:43:47;;;;;;;3.63;1.90;;;;;;;4.34;100.00;152476.63;4993243;28;20460;-78
2024/01/06 05:46:21;;;;;;;1.93;1.50;;;;;;;4.31;100.00;152470.19;5012829;28;20531;-78
2024/01/06 05:48:49;;;;;;;2.80;2.13;;;;;;;4.28;100.00;152463.75;4994323;28;20458;-78
2024/01/06 05:51:15;;;;;;;2.13;1.50;;;;;;;4.30;100.00;152467.59;5026079;28;20452;-78
2024/01/06 05:53:42;;;;;;;3.30;1.87;;;;;;;4.31;100.00;152470.19;5028923;28;20956;-78
2024/01/06 05:56:09;;;;;;;4.70;2.27;;;;;;;4.31;100.00;152470.19;5004325;28;20456;-78
2024/01/06 05:58:36;;;;;;;2.30;1.97;;;;;;;4.29;100.00;152465.00;5008852;28;20547;-78
2024/01/06 06:01:03;;;;;;;2.90;1.73;;;;;;;4.29;100.00;152466.31;4983458;28;20991;-78
2024/01/06 06:03:29;;;;;;;2.43;1.80;;;;;;;4.30;100.00;152467.59;5011155;28;20480;-78
2024/01/06 06:05:57;;;;;;;2.67;1.27;;;;;;;4.30;100.00;152468.91;5006668;28;20467;-78
2024/01/06 06:08:24;;;;;;;2.70;1.73;;;;;;;4.29;100.00;152466.31;4998210;28;20449;-78
2024/01/06 06:11:01;;;;;;;1.90;1.30;;;;;;;4.30;100.00;152467.59;4982705;28;21117;-78
2024/01/06 06:13:28;;;;;;;2.53;1.50;;;;;;;4.32;100.00;152472.75;4995639;28;20992;-78
2024/01/06 06:15:54;;;;;;;2.43;1.60;;;;;;;4.31;100.00;152471.44;4999399;28;20798;-78
2024/01/06 06:18:21;;;;;;;2.47;1.97;;;;;;;4.36;100.00;152481.78;4999749;28;20450;-77
2024/01/06 06:21:11;;;;;;;2.20;1.73;;;;;;;4.36;100.00;152481.78;4998502;28;20449;-77
2024/01/06 06:26:17;;;;;;;3.67;2.20;;;;;;;4.38;100.00;152488.22;5006527;23;20500;-77
2024/01/06 06:28:43;;;;;;;3.30;1.97;;;;;;;4.36;100.00;152483.06;4988380;28;20450;-77
2024/01/06 06:31:10;;;;;;;2.13;1.50;;;;;;;4.35;100.00;152480.47;4978941;28;20536;-77
2024/01/06 06:33:36;;;;;;;2.57;1.50;;;;;;;4.34;100.00;152477.94;4986217;28;21057;-77
2024/01/06 06:36:10;;;;;;;3.03;1.70;;;;;;;4.33;100.00;152475.34;4975776;28;20812;-77
2024/01/06 06:38:37;;;;;;;3.47;1.60;;;;;;;4.32;100.00;152472.75;4959128;28;20454;-78
2024/01/06 06:41:09;;;;;;;2.40;1.70;;;;;;;4.32;100.00;152474.03;4976052;28;20810;-78
2024/01/06 06:43:36;;;;;;;3.70;1.50;;;;;;;4.33;100.00;152475.34;4979378;28;20465;-76
2024/01/06 06:46:03;;;;;;;3.80;2.10;;;;;;;4.36;100.00;152481.78;4972156;28;20452;-76
2024/01/06 06:48:36;;;;;;;2.03;1.70;;;;;;;4.35;100.00;152480.47;4975495;28;20527;-76
2024/01/06 06:51:03;;;;;;;2.00;1.80;;;;;;;4.30;100.00;152467.59;4956847;28;20452;-76
2024/01/06 06:53:31;;;;;;;2.00;1.80;;;;;;;4.33;100.00;152475.34;4969554;28;20540;-76
2024/01/06 06:55:58;;;;;;;2.20;2.00;;;;;;;4.33;100.00;152475.34;4970348;28;20480;-76
2024/01/06 06:58:25;;;;;;;1.87;1.70;;;;;;;4.32;100.00;152474.03;4991395;28;20864;-76
2024/01/06 07:00:54;;;;;;;4.20;2.00;;;;;;;4.36;100.00;152481.78;4951365;28;20460;-76
2024/01/06 07:03:20;;;;;;;4.70;2.03;;;;;;;4.38;100.00;152488.22;4977618;28;20464;-76
2024/01/06 07:05:47;;;;;;;6.10;1.83;;;;;;;4.36;100.00;152483.06;4967750;28;20445;-77
2024/01/06 07:08:15;;;;;;;3.17;2.10;;;;;;;4.37;100.00;152485.63;4988681;28;20453;-77
2024/01/06 07:10:42;;;;;;;3.37;2.50;;;;;;;4.36;100.00;152483.06;4967257;28;20465;-77
2024/01/06 07:13:09;;;;;;;4.27;2.70;;;;;;;4.38;100.00;152486.91;4974477;28;20580;-78
2024/01/06 07:15:38;;;;;;;4.70;3.00;;;;;;;4.35;100.00;152480.47;4962386;28;21231;-78
2024/01/06 07:18:04;;;;;;;4.00;2.57;;;;;;;4.36;100.00;152481.78;4985297;28;20456;-78
2024/01/06 07:20:31;;;;;;;4.50;2.73;;;;;;;4.38;100.00;152486.91;4962891;28;20465;-78
2024/01/06 07:22:57;;;;;;;4.90;2.23;;;;;;;4.36;100.00;152483.06;4947423;28;20481;-77
2024/01/06 07:25:24;;;;;;;2.90;2.50;;;;;;;4.40;100.00;152493.34;4955834;28;20924;-78
2024/01/06 07:27:52;;;;;;;2.43;1.80;;;;;;;4.35;100.00;152480.47;4969996;28;20472;-77
2024/01/06 07:30:19;;;;;;;2.50;2.00;;;;;;;4.35;100.00;152479.19;4974549;28;20461;-78
2024/01/06 07:32:45;;;;;;;3.40;2.23;;;;;;;4.37;100.00;152484.38;4985839;28;20564;-78
2024/01/06 07:35:12;;;;;;;5.20;2.40;;;;;;;4.35;100.00;152480.47;4989223;28;20816;-78
2024/01/06 07:37:38;;;;;;;4.83;2.63;;;;;;;4.36;100.00;152481.78;4957458;28;20963;-78
2024/01/06 07:40:06;;;;;;;2.90;2.10;;;;;;;4.37;100.00;152485.63;4963196;28;20484;-78
2024/01/06 07:42:32;;;;;;;2.70;2.23;;;;;;;4.38;100.00;152488.22;4970085;28;20963;-78
2024/01/06 07:45:00;;;;;;;3.50;2.30;;;;;;;4.39;100.00;152490.81;4985106;28;20467;-77
2024/01/06 07:47:30;;;;;;;3.10;2.70;;;;;;;4.38;100.00;152488.22;4948959;28;20902;-78
2024/01/06 07:49:57;;;;;;;3.70;2.00;;;;;;;4.35;100.00;152480.47;4966964;28;20453;-78
2024/01/06 07:52:23;;;;;;;3.87;2.40;;;;;;;4.30;100.00;152468.91;4970056;28;20473;-77
2024/01/06 07:54:50;;;;;;;9.43;2.67;;;;;;;4.31;100.00;152471.44;4972533;28;20452;-78
2024/01/06 07:57:16;;;;;;;3.37;2.40;;;;;;;4.34;100.00;152477.94;4969590;28;20958;-78
2024/01/06 07:59:43;;;;;;;2.80;2.40;;;;;;;4.29;100.00;152466.31;4969374;28;20461;-77
2024/01/06 08:02:11;;;;;;;3.90;3.10;;;;;;;4.29;100.00;152465.00;4970120;28;21223;-78
2024/01/06 08:04:37;;;;;;;3.60;2.63;;;;;;;4.27;100.00;152461.16;4990482;28;20476;-77
2024/01/06 08:07:04;;;;;;;4.17;2.90;;;;;;;4.30;100.00;152468.91;4964038;28;20469;-77
2024/01/06 08:09:31;;;;;;;4.43;2.87;;;;;;;4.28;100.00;152463.75;4981150;28;20829;-77
2024/01/06 08:11:57;;;;;;;5.30;2.93;;;;;;;4.31;100.00;152470.19;4985644;28;20459;-78
2024/01/06 08:14:24;;;;;;;6.43;3.00;;;;;;;4.35;100.00;152479.19;4975192;28;21037;-75
2024/01/06 08:16:51;;;;;;;3.47;2.67;;;;;;;4.36;100.00;152483.06;4981955;28;20497;-75
2024/01/06 08:19:18;;;;;;;2.83;2.50;;;;;;;4.40;100.00;152493.34;4959083;28;20997;-78
2024/01/06 08:21:45;;;;;;;4.23;2.87;;;;;;;4.40;100.00;152493.34;4969087;28;20481;-78
2024/01/06 08:24:12;;;;;;;3.07;2.73;;;;;;;4.42;100.00;152497.25;4978691;28;20473;-78
2024/01/06 08:26:38;;;;;;;2.87;2.33;;;;;;;4.41;100.00;152494.66;4976760;28;20492;-78
2024/01/06 08:29:05;;;;;;;3.60;2.53;;;;;;;4.42;100.00;152498.50;4976318;28;20812;-78
2024/01/06 08:31:31;;;;;;;4.10;2.57;;;;;;;4.45;100.00;152506.22;4974338;28;20455;-78
2024/01/06 08:33:58;;;;;;;2.83;2.00;;;;;;;4.43;100.00;152501.09;4974406;28;20524;-78
2024/01/06 08:36:26;;;;;;;4.03;3.20;;;;;;;4.45;100.00;152506.22;4989523;28;20544;-78
2024/01/06 08:38:52;;;;;;;4.97;2.30;;;;;;;4.50;100.00;152517.84;4971426;28;20453;-78
2024/01/06 08:41:19;;;;;;;3.07;2.37;;;;;;;4.48;100.00;152513.97;4972760;28;20460;-78
2024/01/06 08:43:45;;;;;;;4.07;2.27;;;;;;;4.52;100.00;152524.28;4971088;28;20469;-78
2024/01/06 08:46:12;;;;;;;3.60;2.60;;;;;;;4.55;100.00;152530.72;4969705;28;20499;-78
2024/01/06 08:48:39;;;;;;;4.10;2.70;;;;;;;4.57;100.00;152537.19;4993909;28;20452;-75
2024/01/06 08:51:05;;;;;;;3.37;2.40;;;;;;;4.56;100.00;152534.59;4968844;28;20457;-78
2024/01/06 08:53:33;;;;;;;3.50;2.50;;;;;;;4.58;100.00;152539.72;4991910;28;20846;-76
2024/01/06 08:56:00;;;;;;;3.70;2.97;;;;;;;4.59;100.00;152541.03;4973106;28;20454;-78
2024/01/06 08:58:27;;;;;;;3.30;2.60;;;;;;;4.61;100.00;152547.47;4965859;28;20473;-78
2024/01/06 09:00:54;;;;;;;2.97;2.30;;;;;;;4.68;100.00;152564.22;4971427;28;21069;-78
2024/01/06 09:03:24;;;;;;;3.33;2.70;;;;;;;4.70;100.00;152570.66;4992512;28;20485;-77
2024/01/06 09:05:51;;;;;;;3.43;2.83;;;;;;;4.68;100.00;152565.53;4963478;28;20454;-78
2024/01/06 09:08:18;;;;;;;2.90;2.37;;;;;;;4.71;100.00;152573.22;4963557;28;20500;-78
2024/01/06 09:10:46;;;;;;;3.70;2.97;;;;;;;4.72;100.00;152575.81;4989860;28;20456;-78
2024/01/06 09:13:13;;;;;;;4.27;2.87;;;;;;;4.74;100.00;152579.66;4975267;28;20460;-78
2024/01/06 09:15:39;;;;;;;4.13;3.13;;;;;;;4.76;100.00;152584.84;4956442;28;20448;-78
2024/01/06 09:18:06;;;;;;;3.90;2.70;;;;;;;4.75;100.00;152583.56;4994287;28;20448;-78
2024/01/06 09:20:32;;;;;;;3.90;2.70;;;;;;;4.78;100.00;152591.28;4969012;28;20469;-78
2024/01/06 09:22:59;;;;;;;4.60;2.87;;;;;;;4.78;100.00;152590.00;4988863;28;20544;-78
2024/01/06 09:25:26;;;;;;;3.33;2.73;;;;;;;4.81;100.00;152599.03;4992082;28;20472;-78
2024/01/06 09:27:53;;;;;;;3.23;2.30;;;;;;;4.84;100.00;152606.72;4969559;28;20903;-78
2024/01/06 09:30:20;;;;;;;2.93;2.47;;;;;;;4.84;100.00;152606.72;4962243;28;20468;-78
2024/01/06 09:32:46;;;;;;;3.07;2.70;;;;;;;4.90;100.00;152620.91;4992571;28;20459;-78
2024/01/06 09:35:13;;;;;;;3.10;2.40;;;;;;;4.93;100.00;152629.94;4970818;28;20504;-78
2024/01/06 09:37:41;;;;;;;3.43;2.20;;;;;;;4.93;100.00;152629.94;4968151;28;20903;-78
2024/01/06 09:40:12;;;;;;;3.90;2.40;;;;;;;4.96;100.00;152635.06;4989762;28;20464;-78
2024/01/06 09:42:38;;;;;;;3.53;2.00;;;;;;;4.96;100.00;152635.06;4972448;28;20816;-77
2024/01/06 09:45:07;;;;;;;2.70;1.87;;;;;;;4.99;100.00;152642.81;4987921;28;20492;-77
2024/01/06 09:47:35;;;;;;;2.37;1.60;;;;;;;5.01;100.00;152647.97;4972733;28;20554;-78
2024/01/06 09:50:05;;;;;;;2.30;1.73;;;;;;;5.04;100.00;152655.69;4965880;28;20549;-77
2024/01/06 09:52:33;;;;;;;2.23;1.90;;;;;;;5.07;100.00;152664.75;4985697;28;20453;-78
2024/01/06 09:55:01;;;;;;;1.70;1.40;;;;;;;5.08;100.00;152667.34;4989611;28;20461;-78
2024/01/06 09:57:27;;;;;;;2.10;1.67;;;;;;;5.13;100.00;152678.94;4994037;28;20457;-77
2024/01/06 09:59:54;;;;;;;2.07;1.87;;;;;;;5.14;100.00;152681.47;4994801;28;20461;-77
2024/01/06 10:02:22;;;;;;;3.93;2.47;;;;;;;5.17;100.00;152689.22;4979353;28;20535;-77
2024/01/06 10:04:49;;;;;;;1.90;1.60;;;;;;;5.21;100.00;152699.56;4978705;28;20469;-77
2024/01/06 10:07:19;;;;;;;2.33;2.03;;;;;;;5.22;100.00;152702.09;4972061;28;20502;-76
2024/01/06 10:09:46;;;;;;;2.50;1.67;;;;;;;5.22;100.00;152702.09;4989460;28;20559;-77
2024/01/06 10:12:12;;;;;;;2.70;1.50;;;;;;;5.24;100.00;152707.28;4995543;28;20457;-77
2024/01/06 10:14:39;;;;;;;2.10;1.67;;;;;;;5.24;100.00;152707.28;4975082;28;20481;-77
2024/01/06 10:17:07;;;;;;;2.80;2.17;;;;;;;5.27;100.00;152716.28;4994752;28;20496;-77
2024/01/06 10:19:35;;;;;;;2.47;1.93;;;;;;;5.29;100.00;152721.47;4978735;28;20460;-77
2024/01/06 10:22:02;;;;;;;2.10;1.90;;;;;;;5.30;100.00;152724.03;4953284;28;20919;-77
2024/01/06 10:24:30;;;;;;;2.30;1.80;;;;;;;5.31;100.00;152725.31;4975453;28;20844;-77
2024/01/06 10:26:56;;;;;;;2.27;1.70;;;;;;;5.35;100.00;152735.63;4978074;28;20482;-76
2024/01/06 10:29:23;;;;;;;2.40;1.87;;;;;;;5.34;100.00;152734.38;4981150;28;20462;-77
2024/01/06 10:31:50;;;;;;;2.50;2.00;;;;;;;5.34;100.00;152733.06;4989648;28;20894;-76
2024/01/06 10:34:16;;;;;;;2.13;1.30;;;;;;;5.36;100.00;152738.22;4996506;28;20939;-76
2024/01/06 10:36:45;;;;;;;1.90;1.70;;;;;;;5.36;100.00;152738.22;4992639;28;20587;-76
2024/01/06 10:39:15;;;;;;;2.53;1.67;;;;;;;5.36;100.00;152739.50;4993776;28;20512;-77
2024/01/06 10:41:42;;;;;;;2.30;1.80;;;;;;;5.41;100.00;152751.09;4978325;28;20460;-77
2024/01/06 10:44:10;;;;;;;2.00;1.80;;;;;;;5.42;100.00;152753.69;4976727;28;20481;-77
2024/01/06 10:46:37;;;;;;;1.70;1.47;;;;;;;5.41;100.00;152751.09;4972884;28;20571;-76
2024/01/06 10:49:08;;;;;;;2.47;1.77;;;;;;;5.40;100.00;152749.81;4969090;28;20452;-76
2024/01/06 10:51:35;;;;;;;2.23;1.83;;;;;;;5.41;100.00;152751.09;4974599;28;20455;-76
2024/01/06 10:54:04;;;;;;;2.27;1.70;;;;;;;5.45;100.00;152761.44;4974051;28;20497;-76
2024/01/06 10:56:31;;;;;;;2.37;1.60;;;;;;;5.45;100.00;152762.69;4986699;28;20464;-76
2024/01/06 10:58:58;;;;;;;2.57;1.87;;;;;;;5.47;100.00;152766.59;4972012;28;21184;-76
2024/01/06 11:01:29;;;;;;;2.27;1.70;;;;;;;5.41;100.00;152752.41;4990241;28;20501;-77
2024/01/06 11:03:56;;;;;;;1.73;1.30;;;;;;;5.41;100.00;152751.09;4972522;28;20473;-77
2024/01/06 11:06:23;;;;;;;2.30;1.60;;;;;;;5.42;100.00;152753.69;4994745;28;20552;-77
2024/01/06 11:08:53;;;;;;;2.20;1.33;;;;;;;5.43;100.00;152756.25;4975423;28;20446;-77
2024/01/06 11:11:21;;;;;;;2.53;1.50;;;;;;;5.44;100.00;152760.13;4971304;28;20456;-77
2024/01/06 11:13:48;;;;;;;3.37;2.00;;;;;;;5.45;100.00;152761.44;4994565;28;20461;-77
2024/01/06 11:16:36;;;;;;;2.50;1.80;;;;;;;5.44;100.00;152758.84;4995958;28;20488;-77
2024/01/06 11:19:31;;;;;;;1.93;1.73;;;;;;;5.45;100.00;152761.44;4997531;28;20469;-77
2024/01/06 11:22:21;;;;;;;3.17;2.03;;;;;;;5.43;100.00;152757.53;4991286;28;20453;-77
2024/01/06 11:24:49;;;;;;;2.30;1.63;;;;;;;5.45;100.00;152761.44;4968064;28;20485;-77
2024/01/06 11:27:20;;;;;;;2.60;1.63;;;;;;;5.43;100.00;152756.25;4968322;28;20971;-76